Terminal Aerodrome Forecast
Issued by NWS Greer, SC

Current Version | Previous Version | Text Only | Print | Product List | Glossary On
Versions: 1 2 3 4 5 6 7 8 9 10 11 12
000
FTUS42 KGSP 010539
TAFGSP
TAF
KGSP 010539Z 0106/0206 23004KT P6SM BKN150
     FM011600 19008KT P6SM BKN200
     FM012300 17006KT P6SM OVC025
     FM020200 19011KT 2SM -RA BR OVC008=

USA.gov is the U.S. government's official web portal to all federal, state and local government web resources and services.